sensor_id;sensor_type;location;lat;lon;timestamp;P1;durP1;ratioP1;P2;durP2;ratioP2
17606;SDS011;8922;52.240;20.980;2022-12-29T00:00:13;8.60;;;4.87;;
17606;SDS011;8922;52.240;20.980;2022-12-29T00:02:42;7.67;;;4.67;;
17606;SDS011;8922;52.240;20.980;2022-12-29T00:05:12;7.20;;;3.97;;
17606;SDS011;8922;52.240;20.980;2022-12-29T00:07:40;9.00;;;5.07;;
17606;SDS011;8922;52.240;20.980;2022-12-29T00:10:09;6.73;;;4.60;;
17606;SDS011;8922;52.240;20.980;2022-12-29T00:12:37;6.67;;;4.70;;
17606;SDS011;8922;52.240;20.980;2022-12-29T00:15:23;9.23;;;4.70;;
17606;SDS011;8922;52.240;20.980;2022-12-29T00:18:07;6.27;;;4.50;;
17606;SDS011;8922;52.240;20.980;2022-12-29T00:20:37;6.43;;;3.87;;
17606;SDS011;8922;52.240;20.980;2022-12-29T00:23:23;9.10;;;4.53;;
17606;SDS011;8922;52.240;20.980;2022-12-29T00:26:10;7.53;;;5.10;;
17606;SDS011;8922;52.240;20.980;2022-12-29T00:28:59;10.47;;;5.33;;
17606;SDS011;8922;52.240;20.980;2022-12-29T00:31:45;6.80;;;4.60;;
17606;SDS011;8922;52.240;20.980;2022-12-29T00:34:32;6.37;;;4.37;;
17606;SDS011;8922;52.240;20.980;2022-12-29T00:37:19;9.27;;;5.20;;
17606;SDS011;8922;52.240;20.980;2022-12-29T00:40:08;8.00;;;4.53;;
17606;SDS011;8922;52.240;20.980;2022-12-29T00:43:00;5.60;;;3.80;;
17606;SDS011;8922;52.240;20.980;2022-12-29T00:45:46;9.03;;;4.70;;
17606;SDS011;8922;52.240;20.980;2022-12-29T00:48:14;6.00;;;4.53;;
17606;SDS011;8922;52.240;20.980;2022-12-29T00:51:03;8.20;;;4.37;;
17606;SDS011;8922;52.240;20.980;2022-12-29T00:53:32;7.10;;;4.40;;
17606;SDS011;8922;52.240;20.980;2022-12-29T00:56:01;6.93;;;4.17;;
17606;SDS011;8922;52.240;20.980;2022-12-29T00:58:30;8.90;;;4.33;;
17606;SDS011;8922;52.240;20.980;2022-12-29T01:01:01;6.50;;;3.87;;
17606;SDS011;8922;52.240;20.980;2022-12-29T01:03:31;7.27;;;4.27;;
17606;SDS011;8922;52.240;20.980;2022-12-29T01:06:01;8.27;;;4.97;;
17606;SDS011;8922;52.240;20.980;2022-12-29T01:08:30;6.27;;;4.07;;
17606;SDS011;8922;52.240;20.980;2022-12-29T01:11:03;6.90;;;4.10;;
17606;SDS011;8922;52.240;20.980;2022-12-29T01:13:32;9.73;;;3.60;;
17606;SDS011;8922;52.240;20.980;2022-12-29T01:16:01;7.67;;;4.17;;
17606;SDS011;8922;52.240;20.980;2022-12-29T01:18:30;7.37;;;3.77;;
17606;SDS011;8922;52.240;20.980;2022-12-29T01:20:59;7.47;;;3.80;;
17606;SDS011;8922;52.240;20.980;2022-12-29T01:23:29;7.60;;;4.17;;
17606;SDS011;8922;52.240;20.980;2022-12-29T01:26:04;5.57;;;3.60;;
17606;SDS011;8922;52.240;20.980;2022-12-29T01:28:36;5.20;;;3.60;;
17606;SDS011;8922;52.240;20.980;2022-12-29T01:31:06;5.20;;;3.73;;
17606;SDS011;8922;52.240;20.980;2022-12-29T01:33:35;8.13;;;3.83;;
17606;SDS011;8922;52.240;20.980;2022-12-29T01:36:04;6.30;;;4.23;;
17606;SDS011;8922;52.240;20.980;2022-12-29T01:38:35;5.40;;;3.57;;
17606;SDS011;8922;52.240;20.980;2022-12-29T01:41:07;7.00;;;4.70;;
17606;SDS011;8922;52.240;20.980;2022-12-29T01:43:41;6.83;;;3.90;;
17606;SDS011;8922;52.240;20.980;2022-12-29T01:46:17;5.10;;;4.13;;
17606;SDS011;8922;52.240;20.980;2022-12-29T01:48:51;6.97;;;4.30;;
17606;SDS011;8922;52.240;20.980;2022-12-29T01:51:25;6.77;;;4.50;;
17606;SDS011;8922;52.240;20.980;2022-12-29T01:53:57;4.43;;;3.67;;
17606;SDS011;8922;52.240;20.980;2022-12-29T01:56:31;6.37;;;3.63;;
17606;SDS011;8922;52.240;20.980;2022-12-29T01:59:02;6.40;;;3.97;;
17606;SDS011;8922;52.240;20.980;2022-12-29T02:01:35;7.07;;;4.10;;
17606;SDS011;8922;52.240;20.980;2022-12-29T02:04:04;5.37;;;3.50;;
17606;SDS011;8922;52.240;20.980;2022-12-29T02:06:33;6.13;;;4.00;;
17606;SDS011;8922;52.240;20.980;2022-12-29T02:09:05;6.40;;;4.40;;
17606;SDS011;8922;52.240;20.980;2022-12-29T02:11:35;6.27;;;3.90;;
17606;SDS011;8922;52.240;20.980;2022-12-29T02:14:08;6.87;;;4.27;;
17606;SDS011;8922;52.240;20.980;2022-12-29T02:16:40;6.80;;;4.40;;
17606;SDS011;8922;52.240;20.980;2022-12-29T02:19:39;6.43;;;3.60;;
17606;SDS011;8922;52.240;20.980;2022-12-29T02:22:41;5.80;;;3.60;;
17606;SDS011;8922;52.240;20.980;2022-12-29T02:28:47;6.90;;;3.50;;
17606;SDS011;8922;52.240;20.980;2022-12-29T02:32:00;5.63;;;2.97;;
17606;SDS011;8922;52.240;20.980;2022-12-29T02:34:36;4.97;;;3.37;;
17606;SDS011;8922;52.240;20.980;2022-12-29T02:37:17;7.00;;;4.00;;
17606;SDS011;8922;52.240;20.980;2022-12-29T02:39:54;5.37;;;3.60;;
17606;SDS011;8922;52.240;20.980;2022-12-29T02:42:33;5.00;;;3.60;;
17606;SDS011;8922;52.240;20.980;2022-12-29T02:45:13;8.50;;;3.50;;
17606;SDS011;8922;52.240;20.980;2022-12-29T02:47:50;6.30;;;4.07;;
17606;SDS011;8922;52.240;20.980;2022-12-29T02:50:27;5.50;;;3.67;;
17606;SDS011;8922;52.240;20.980;2022-12-29T02:53:01;7.17;;;4.30;;
17606;SDS011;8922;52.240;20.980;2022-12-29T02:55:33;8.57;;;4.33;;
17606;SDS011;8922;52.240;20.980;2022-12-29T02:58:08;5.83;;;3.83;;
17606;SDS011;8922;52.240;20.980;2022-12-29T03:00:48;6.60;;;4.03;;
17606;SDS011;8922;52.240;20.980;2022-12-29T03:03:36;6.67;;;3.57;;
17606;SDS011;8922;52.240;20.980;2022-12-29T03:06:20;5.83;;;3.50;;
17606;SDS011;8922;52.240;20.980;2022-12-29T03:09:03;3.97;;;3.17;;
17606;SDS011;8922;52.240;20.980;2022-12-29T03:11:48;6.17;;;3.47;;
17606;SDS011;8922;52.240;20.980;2022-12-29T03:14:39;5.07;;;3.57;;
17606;SDS011;8922;52.240;20.980;2022-12-29T03:17:39;5.97;;;3.20;;
17606;SDS011;8922;52.240;20.980;2022-12-29T03:20:20;5.70;;;3.37;;
17606;SDS011;8922;52.240;20.980;2022-12-29T03:22:55;4.53;;;3.17;;
17606;SDS011;8922;52.240;20.980;2022-12-29T03:25:29;5.00;;;2.97;;
17606;SDS011;8922;52.240;20.980;2022-12-29T03:28:01;5.57;;;3.00;;
17606;SDS011;8922;52.240;20.980;2022-12-29T03:30:35;6.83;;;3.23;;
17606;SDS011;8922;52.240;20.980;2022-12-29T03:33:07;6.27;;;3.23;;
17606;SDS011;8922;52.240;20.980;2022-12-29T03:35:43;4.90;;;3.20;;
17606;SDS011;8922;52.240;20.980;2022-12-29T03:38:15;4.60;;;3.17;;
17606;SDS011;8922;52.240;20.980;2022-12-29T03:40:49;4.37;;;3.10;;
17606;SDS011;8922;52.240;20.980;2022-12-29T03:43:22;5.63;;;3.33;;
17606;SDS011;8922;52.240;20.980;2022-12-29T03:45:52;4.77;;;2.87;;
17606;SDS011;8922;52.240;20.980;2022-12-29T03:48:20;5.10;;;3.17;;
17606;SDS011;8922;52.240;20.980;2022-12-29T03:50:50;4.33;;;3.00;;
17606;SDS011;8922;52.240;20.980;2022-12-29T03:53:19;6.53;;;3.17;;
17606;SDS011;8922;52.240;20.980;2022-12-29T03:55:47;5.67;;;3.43;;
17606;SDS011;8922;52.240;20.980;2022-12-29T03:58:16;3.93;;;2.80;;
17606;SDS011;8922;52.240;20.980;2022-12-29T04:00:44;3.60;;;2.80;;
17606;SDS011;8922;52.240;20.980;2022-12-29T04:03:13;3.97;;;2.67;;
17606;SDS011;8922;52.240;20.980;2022-12-29T04:05:43;4.43;;;2.70;;
17606;SDS011;8922;52.240;20.980;2022-12-29T04:08:13;3.53;;;2.83;;
17606;SDS011;8922;52.240;20.980;2022-12-29T04:10:42;7.40;;;3.53;;
17606;SDS011;8922;52.240;20.980;2022-12-29T04:13:10;5.50;;;3.00;;
17606;SDS011;8922;52.240;20.980;2022-12-29T04:15:39;4.57;;;2.90;;
17606;SDS011;8922;52.240;20.980;2022-12-29T04:18:08;4.87;;;3.17;;
17606;SDS011;8922;52.240;20.980;2022-12-29T04:20:37;4.77;;;3.13;;
17606;SDS011;8922;52.240;20.980;2022-12-29T04:23:24;4.13;;;3.30;;
17606;SDS011;8922;52.240;20.980;2022-12-29T04:25:53;5.97;;;3.77;;
17606;SDS011;8922;52.240;20.980;2022-12-29T04:28:21;5.30;;;3.57;;
17606;SDS011;8922;52.240;20.980;2022-12-29T04:30:50;5.40;;;3.40;;
17606;SDS011;8922;52.240;20.980;2022-12-29T04:33:19;5.43;;;3.80;;
17606;SDS011;8922;52.240;20.980;2022-12-29T04:35:48;7.43;;;3.90;;
17606;SDS011;8922;52.240;20.980;2022-12-29T04:38:18;5.73;;;3.33;;
17606;SDS011;8922;52.240;20.980;2022-12-29T04:40:49;6.13;;;3.67;;
17606;SDS011;8922;52.240;20.980;2022-12-29T04:43:18;5.77;;;3.77;;
17606;SDS011;8922;52.240;20.980;2022-12-29T04:45:48;7.10;;;4.10;;
17606;SDS011;8922;52.240;20.980;2022-12-29T04:48:16;7.47;;;3.97;;
17606;SDS011;8922;52.240;20.980;2022-12-29T04:50:46;7.10;;;3.83;;
17606;SDS011;8922;52.240;20.980;2022-12-29T04:53:16;6.00;;;3.77;;
17606;SDS011;8922;52.240;20.980;2022-12-29T04:55:49;6.87;;;4.17;;
17606;SDS011;8922;52.240;20.980;2022-12-29T04:58:19;5.93;;;3.97;;
17606;SDS011;8922;52.240;20.980;2022-12-29T05:00:49;8.00;;;4.13;;
17606;SDS011;8922;52.240;20.980;2022-12-29T05:03:18;6.73;;;4.03;;
17606;SDS011;8922;52.240;20.980;2022-12-29T05:05:46;9.10;;;4.27;;
17606;SDS011;8922;52.240;20.980;2022-12-29T05:08:15;8.53;;;4.27;;
17606;SDS011;8922;52.240;20.980;2022-12-29T05:10:51;6.70;;;3.80;;
17606;SDS011;8922;52.240;20.980;2022-12-29T05:13:20;7.40;;;3.97;;
17606;SDS011;8922;52.240;20.980;2022-12-29T05:15:49;6.67;;;4.40;;
17606;SDS011;8922;52.240;20.980;2022-12-29T05:18:19;9.03;;;5.07;;
17606;SDS011;8922;52.240;20.980;2022-12-29T05:20:47;9.03;;;4.30;;
17606;SDS011;8922;52.240;20.980;2022-12-29T05:23:16;7.23;;;4.20;;
17606;SDS011;8922;52.240;20.980;2022-12-29T05:25:44;7.27;;;4.40;;
17606;SDS011;8922;52.240;20.980;2022-12-29T05:28:14;8.57;;;4.93;;
17606;SDS011;8922;52.240;20.980;2022-12-29T05:30:43;8.53;;;4.87;;
17606;SDS011;8922;52.240;20.980;2022-12-29T05:33:15;8.60;;;5.07;;
17606;SDS011;8922;52.240;20.980;2022-12-29T05:35:43;8.57;;;4.50;;
17606;SDS011;8922;52.240;20.980;2022-12-29T05:38:12;8.20;;;4.97;;
17606;SDS011;8922;52.240;20.980;2022-12-29T05:40:41;8.73;;;4.93;;
17606;SDS011;8922;52.240;20.980;2022-12-29T05:43:10;7.40;;;4.87;;
17606;SDS011;8922;52.240;20.980;2022-12-29T05:45:40;9.77;;;5.03;;
17606;SDS011;8922;52.240;20.980;2022-12-29T05:48:08;12.80;;;5.50;;
17606;SDS011;8922;52.240;20.980;2022-12-29T05:50:36;9.33;;;5.20;;
17606;SDS011;8922;52.240;20.980;2022-12-29T05:53:05;8.50;;;5.13;;
17606;SDS011;8922;52.240;20.980;2022-12-29T05:55:33;10.40;;;5.63;;
17606;SDS011;8922;52.240;20.980;2022-12-29T05:58:02;7.63;;;4.87;;
17606;SDS011;8922;52.240;20.980;2022-12-29T06:00:30;7.03;;;4.60;;
17606;SDS011;8922;52.240;20.980;2022-12-29T06:03:00;8.27;;;4.87;;
17606;SDS011;8922;52.240;20.980;2022-12-29T06:05:29;9.17;;;5.20;;
17606;SDS011;8922;52.240;20.980;2022-12-29T06:07:57;8.73;;;4.83;;
17606;SDS011;8922;52.240;20.980;2022-12-29T06:10:26;5.97;;;3.83;;
17606;SDS011;8922;52.240;20.980;2022-12-29T06:12:54;9.43;;;4.73;;
17606;SDS011;8922;52.240;20.980;2022-12-29T06:15:23;10.33;;;4.93;;
17606;SDS011;8922;52.240;20.980;2022-12-29T06:17:51;8.37;;;4.20;;
17606;SDS011;8922;52.240;20.980;2022-12-29T06:20:21;9.47;;;5.70;;
17606;SDS011;8922;52.240;20.980;2022-12-29T06:22:49;7.70;;;4.27;;
17606;SDS011;8922;52.240;20.980;2022-12-29T06:25:18;7.93;;;4.93;;
17606;SDS011;8922;52.240;20.980;2022-12-29T06:27:46;7.30;;;4.63;;
17606;SDS011;8922;52.240;20.980;2022-12-29T06:30:15;7.07;;;4.67;;
17606;SDS011;8922;52.240;20.980;2022-12-29T06:32:44;6.40;;;4.57;;
17606;SDS011;8922;52.240;20.980;2022-12-29T06:35:13;10.03;;;5.20;;
17606;SDS011;8922;52.240;20.980;2022-12-29T06:37:43;7.67;;;4.40;;
17606;SDS011;8922;52.240;20.980;2022-12-29T06:40:12;5.87;;;4.33;;
17606;SDS011;8922;52.240;20.980;2022-12-29T06:42:41;7.67;;;4.27;;
17606;SDS011;8922;52.240;20.980;2022-12-29T06:45:09;8.43;;;4.63;;
17606;SDS011;8922;52.240;20.980;2022-12-29T06:47:38;8.37;;;4.63;;
17606;SDS011;8922;52.240;20.980;2022-12-29T06:50:07;6.93;;;4.40;;
17606;SDS011;8922;52.240;20.980;2022-12-29T06:52:36;6.53;;;4.00;;
17606;SDS011;8922;52.240;20.980;2022-12-29T06:55:06;8.80;;;4.20;;
17606;SDS011;8922;52.240;20.980;2022-12-29T06:57:35;10.27;;;4.47;;
17606;SDS011;8922;52.240;20.980;2022-12-29T07:00:04;7.23;;;4.27;;
17606;SDS011;8922;52.240;20.980;2022-12-29T07:02:34;6.10;;;4.17;;
17606;SDS011;8922;52.240;20.980;2022-12-29T07:05:03;7.57;;;4.63;;
17606;SDS011;8922;52.240;20.980;2022-12-29T07:07:33;6.83;;;4.00;;
17606;SDS011;8922;52.240;20.980;2022-12-29T07:10:02;6.90;;;4.53;;
17606;SDS011;8922;52.240;20.980;2022-12-29T07:12:33;7.47;;;4.37;;
17606;SDS011;8922;52.240;20.980;2022-12-29T07:15:02;7.17;;;4.20;;
17606;SDS011;8922;52.240;20.980;2022-12-29T07:17:31;5.87;;;3.80;;
17606;SDS011;8922;52.240;20.980;2022-12-29T07:20:00;8.37;;;4.63;;
17606;SDS011;8922;52.240;20.980;2022-12-29T07:22:28;7.73;;;4.00;;
17606;SDS011;8922;52.240;20.980;2022-12-29T07:24:57;7.70;;;3.97;;
17606;SDS011;8922;52.240;20.980;2022-12-29T07:27:27;6.50;;;3.80;;
17606;SDS011;8922;52.240;20.980;2022-12-29T07:29:56;6.60;;;3.77;;
17606;SDS011;8922;52.240;20.980;2022-12-29T07:32:24;8.00;;;3.90;;
17606;SDS011;8922;52.240;20.980;2022-12-29T07:34:53;7.77;;;4.37;;
17606;SDS011;8922;52.240;20.980;2022-12-29T07:37:22;6.00;;;3.90;;
17606;SDS011;8922;52.240;20.980;2022-12-29T07:39:50;6.77;;;4.00;;
17606;SDS011;8922;52.240;20.980;2022-12-29T07:42:19;6.27;;;3.97;;
17606;SDS011;8922;52.240;20.980;2022-12-29T07:44:49;6.93;;;4.00;;
17606;SDS011;8922;52.240;20.980;2022-12-29T07:47:17;7.70;;;3.73;;
17606;SDS011;8922;52.240;20.980;2022-12-29T07:49:45;7.17;;;4.10;;
17606;SDS011;8922;52.240;20.980;2022-12-29T07:52:14;4.27;;;3.47;;
17606;SDS011;8922;52.240;20.980;2022-12-29T07:54:42;5.37;;;3.83;;
17606;SDS011;8922;52.240;20.980;2022-12-29T07:57:11;8.17;;;3.93;;
17606;SDS011;8922;52.240;20.980;2022-12-29T07:59:40;6.47;;;4.27;;
17606;SDS011;8922;52.240;20.980;2022-12-29T08:02:10;6.30;;;3.83;;
17606;SDS011;8922;52.240;20.980;2022-12-29T08:04:39;7.03;;;4.03;;
17606;SDS011;8922;52.240;20.980;2022-12-29T08:07:08;5.10;;;3.60;;
17606;SDS011;8922;52.240;20.980;2022-12-29T08:09:36;5.80;;;3.63;;
17606;SDS011;8922;52.240;20.980;2022-12-29T08:12:05;5.03;;;4.03;;
17606;SDS011;8922;52.240;20.980;2022-12-29T08:14:36;6.07;;;3.43;;
17606;SDS011;8922;52.240;20.980;2022-12-29T08:17:05;6.13;;;3.70;;
17606;SDS011;8922;52.240;20.980;2022-12-29T08:19:34;6.23;;;4.27;;
17606;SDS011;8922;52.240;20.980;2022-12-29T08:22:03;4.83;;;3.73;;
17606;SDS011;8922;52.240;20.980;2022-12-29T08:24:32;5.17;;;3.70;;
17606;SDS011;8922;52.240;20.980;2022-12-29T08:27:00;6.20;;;3.50;;
17606;SDS011;8922;52.240;20.980;2022-12-29T08:29:43;5.77;;;3.50;;
17606;SDS011;8922;52.240;20.980;2022-12-29T08:32:12;8.77;;;3.90;;
17606;SDS011;8922;52.240;20.980;2022-12-29T08:34:41;6.83;;;3.43;;
17606;SDS011;8922;52.240;20.980;2022-12-29T08:37:10;8.07;;;3.77;;
17606;SDS011;8922;52.240;20.980;2022-12-29T08:39:39;5.37;;;3.70;;
17606;SDS011;8922;52.240;20.980;2022-12-29T08:42:07;5.13;;;3.50;;
17606;SDS011;8922;52.240;20.980;2022-12-29T08:44:35;6.00;;;3.37;;
17606;SDS011;8922;52.240;20.980;2022-12-29T08:47:04;5.83;;;3.47;;
17606;SDS011;8922;52.240;20.980;2022-12-29T08:49:33;5.93;;;3.60;;
17606;SDS011;8922;52.240;20.980;2022-12-29T08:52:03;6.77;;;3.90;;
17606;SDS011;8922;52.240;20.980;2022-12-29T08:54:32;5.87;;;3.40;;
17606;SDS011;8922;52.240;20.980;2022-12-29T08:57:01;6.50;;;3.83;;
17606;SDS011;8922;52.240;20.980;2022-12-29T08:59:29;6.50;;;3.63;;
17606;SDS011;8922;52.240;20.980;2022-12-29T09:01:58;5.67;;;3.50;;
17606;SDS011;8922;52.240;20.980;2022-12-29T09:04:28;4.67;;;3.37;;
17606;SDS011;8922;52.240;20.980;2022-12-29T09:06:56;4.03;;;3.30;;
17606;SDS011;8922;52.240;20.980;2022-12-29T09:09:26;6.47;;;3.50;;
17606;SDS011;8922;52.240;20.980;2022-12-29T09:11:55;6.23;;;3.90;;
17606;SDS011;8922;52.240;20.980;2022-12-29T09:14:23;5.87;;;3.90;;
17606;SDS011;8922;52.240;20.980;2022-12-29T09:16:53;5.93;;;4.07;;
17606;SDS011;8922;52.240;20.980;2022-12-29T09:19:40;6.80;;;3.23;;
17606;SDS011;8922;52.240;20.980;2022-12-29T09:22:08;5.63;;;3.73;;
17606;SDS011;8922;52.240;20.980;2022-12-29T09:24:38;9.93;;;3.90;;
17606;SDS011;8922;52.240;20.980;2022-12-29T09:27:07;5.83;;;3.60;;
17606;SDS011;8922;52.240;20.980;2022-12-29T09:29:35;5.57;;;3.50;;
17606;SDS011;8922;52.240;20.980;2022-12-29T09:32:03;5.67;;;3.30;;
17606;SDS011;8922;52.240;20.980;2022-12-29T09:34:33;6.10;;;4.17;;
17606;SDS011;8922;52.240;20.980;2022-12-29T09:37:02;6.67;;;3.90;;
17606;SDS011;8922;52.240;20.980;2022-12-29T09:39:31;4.77;;;3.30;;
17606;SDS011;8922;52.240;20.980;2022-12-29T09:42:02;5.30;;;3.53;;
17606;SDS011;8922;52.240;20.980;2022-12-29T09:44:44;6.10;;;3.23;;
17606;SDS011;8922;52.240;20.980;2022-12-29T09:47:23;4.90;;;3.37;;
17606;SDS011;8922;52.240;20.980;2022-12-29T09:49:54;5.83;;;3.40;;
17606;SDS011;8922;52.240;20.980;2022-12-29T09:52:28;5.60;;;3.47;;
17606;SDS011;8922;52.240;20.980;2022-12-29T09:55:03;8.07;;;4.10;;
17606;SDS011;8922;52.240;20.980;2022-12-29T09:57:42;5.23;;;3.30;;
17606;SDS011;8922;52.240;20.980;2022-12-29T10:00:16;6.47;;;3.23;;
17606;SDS011;8922;52.240;20.980;2022-12-29T10:02:48;6.87;;;3.20;;
17606;SDS011;8922;52.240;20.980;2022-12-29T10:05:30;8.73;;;3.20;;
17606;SDS011;8922;52.240;20.980;2022-12-29T10:08:14;6.53;;;3.40;;
17606;SDS011;8922;52.240;20.980;2022-12-29T10:10:54;6.07;;;3.63;;
17606;SDS011;8922;52.240;20.980;2022-12-29T10:13:30;4.93;;;3.30;;
17606;SDS011;8922;52.240;20.980;2022-12-29T10:16:11;4.93;;;3.30;;
17606;SDS011;8922;52.240;20.980;2022-12-29T10:18:51;5.60;;;3.30;;
17606;SDS011;8922;52.240;20.980;2022-12-29T10:21:43;4.97;;;3.30;;
17606;SDS011;8922;52.240;20.980;2022-12-29T10:24:25;7.77;;;3.73;;
17606;SDS011;8922;52.240;20.980;2022-12-29T10:26:56;5.37;;;3.60;;
17606;SDS011;8922;52.240;20.980;2022-12-29T10:29:29;9.23;;;3.60;;
17606;SDS011;8922;52.240;20.980;2022-12-29T10:32:05;8.57;;;4.03;;
17606;SDS011;8922;52.240;20.980;2022-12-29T10:34:42;6.40;;;3.83;;
17606;SDS011;8922;52.240;20.980;2022-12-29T10:37:24;5.63;;;3.03;;
17606;SDS011;8922;52.240;20.980;2022-12-29T10:40:02;6.87;;;3.37;;
17606;SDS011;8922;52.240;20.980;2022-12-29T10:42:48;5.50;;;3.53;;
17606;SDS011;8922;52.240;20.980;2022-12-29T10:45:21;7.77;;;3.63;;
17606;SDS011;8922;52.240;20.980;2022-12-29T10:47:57;6.80;;;4.00;;
17606;SDS011;8922;52.240;20.980;2022-12-29T10:50:32;8.57;;;5.50;;
17606;SDS011;8922;52.240;20.980;2022-12-29T10:53:02;5.67;;;3.40;;
17606;SDS011;8922;52.240;20.980;2022-12-29T10:55:33;5.10;;;3.80;;
17606;SDS011;8922;52.240;20.980;2022-12-29T10:58:06;6.73;;;4.17;;
17606;SDS011;8922;52.240;20.980;2022-12-29T11:00:40;6.60;;;3.70;;
17606;SDS011;8922;52.240;20.980;2022-12-29T11:03:18;6.83;;;4.00;;
17606;SDS011;8922;52.240;20.980;2022-12-29T11:06:17;7.70;;;3.47;;
17606;SDS011;8922;52.240;20.980;2022-12-29T11:08:52;5.33;;;3.20;;
17606;SDS011;8922;52.240;20.980;2022-12-29T11:11:25;6.13;;;3.33;;
17606;SDS011;8922;52.240;20.980;2022-12-29T11:14:01;5.27;;;3.23;;
17606;SDS011;8922;52.240;20.980;2022-12-29T11:16:40;5.60;;;3.47;;
17606;SDS011;8922;52.240;20.980;2022-12-29T11:19:21;5.07;;;3.53;;
17606;SDS011;8922;52.240;20.980;2022-12-29T11:21:52;5.27;;;3.60;;
17606;SDS011;8922;52.240;20.980;2022-12-29T11:24:22;4.43;;;3.37;;
17606;SDS011;8922;52.240;20.980;2022-12-29T11:26:54;5.23;;;3.47;;
17606;SDS011;8922;52.240;20.980;2022-12-29T11:29:36;6.17;;;3.43;;
17606;SDS011;8922;52.240;20.980;2022-12-29T11:32:11;4.63;;;3.37;;
17606;SDS011;8922;52.240;20.980;2022-12-29T11:34:53;6.88;;;4.43;;
17606;SDS011;8922;52.240;20.980;2022-12-29T11:37:24;6.30;;;4.10;;
17606;SDS011;8922;52.240;20.980;2022-12-29T11:39:57;9.40;;;3.57;;
17606;SDS011;8922;52.240;20.980;2022-12-29T11:42:33;5.43;;;3.93;;
17606;SDS011;8922;52.240;20.980;2022-12-29T11:45:05;6.23;;;3.80;;
17606;SDS011;8922;52.240;20.980;2022-12-29T11:47:45;7.65;;;4.68;;
17606;SDS011;8922;52.240;20.980;2022-12-29T11:50:18;6.77;;;4.20;;
17606;SDS011;8922;52.240;20.980;2022-12-29T11:52:50;7.45;;;4.47;;
17606;SDS011;8922;52.240;20.980;2022-12-29T11:55:26;5.47;;;3.83;;
17606;SDS011;8922;52.240;20.980;2022-12-29T11:57:56;6.83;;;3.97;;
17606;SDS011;8922;52.240;20.980;2022-12-29T12:00:30;7.43;;;4.03;;
17606;SDS011;8922;52.240;20.980;2022-12-29T12:03:03;6.10;;;3.80;;
17606;SDS011;8922;52.240;20.980;2022-12-29T12:05:41;7.17;;;4.00;;
17606;SDS011;8922;52.240;20.980;2022-12-29T12:08:17;4.83;;;3.43;;
17606;SDS011;8922;52.240;20.980;2022-12-29T12:11:02;7.07;;;3.83;;
17606;SDS011;8922;52.240;20.980;2022-12-29T12:13:39;4.97;;;3.43;;
17606;SDS011;8922;52.240;20.980;2022-12-29T12:16:14;5.03;;;3.40;;
17606;SDS011;8922;52.240;20.980;2022-12-29T12:18:48;5.37;;;3.93;;
17606;SDS011;8922;52.240;20.980;2022-12-29T12:21:22;6.87;;;3.97;;
17606;SDS011;8922;52.240;20.980;2022-12-29T12:24:09;6.50;;;4.30;;
17606;SDS011;8922;52.240;20.980;2022-12-29T12:27:07;9.70;;;3.97;;
17606;SDS011;8922;52.240;20.980;2022-12-29T12:29:42;8.40;;;3.33;;
17606;SDS011;8922;52.240;20.980;2022-12-29T12:32:19;4.83;;;3.63;;
17606;SDS011;8922;52.240;20.980;2022-12-29T12:34:56;7.57;;;4.20;;
17606;SDS011;8922;52.240;20.980;2022-12-29T12:40:27;6.50;;;3.73;;
17606;SDS011;8922;52.240;20.980;2022-12-29T12:43:32;7.37;;;3.70;;
17606;SDS011;8922;52.240;20.980;2022-12-29T12:46:15;7.47;;;3.83;;
17606;SDS011;8922;52.240;20.980;2022-12-29T12:49:14;7.00;;;4.17;;
17606;SDS011;8922;52.240;20.980;2022-12-29T12:52:31;7.97;;;3.73;;
17606;SDS011;8922;52.240;20.980;2022-12-29T12:55:21;7.47;;;4.37;;
17606;SDS011;8922;52.240;20.980;2022-12-29T12:58:13;6.63;;;4.30;;
17606;SDS011;8922;52.240;20.980;2022-12-29T13:00:52;4.47;;;3.30;;
17606;SDS011;8922;52.240;20.980;2022-12-29T13:03:42;6.83;;;3.90;;
17606;SDS011;8922;52.240;20.980;2022-12-29T13:06:33;7.40;;;3.83;;
17606;SDS011;8922;52.240;20.980;2022-12-29T13:09:16;6.57;;;4.07;;
17606;SDS011;8922;52.240;20.980;2022-12-29T13:12:10;7.43;;;4.53;;
17606;SDS011;8922;52.240;20.980;2022-12-29T13:14:57;5.87;;;4.13;;
17606;SDS011;8922;52.240;20.980;2022-12-29T13:17:40;9.23;;;3.80;;
17606;SDS011;8922;52.240;20.980;2022-12-29T13:20:20;10.80;;;4.40;;
17606;SDS011;8922;52.240;20.980;2022-12-29T13:22:59;6.57;;;4.30;;
17606;SDS011;8922;52.240;20.980;2022-12-29T13:25:37;8.03;;;4.03;;
17606;SDS011;8922;52.240;20.980;2022-12-29T13:28:13;6.30;;;4.30;;
17606;SDS011;8922;52.240;20.980;2022-12-29T13:30:51;6.73;;;4.00;;
17606;SDS011;8922;52.240;20.980;2022-12-29T13:33:30;5.77;;;3.77;;
17606;SDS011;8922;52.240;20.980;2022-12-29T13:36:09;5.93;;;4.10;;
17606;SDS011;8922;52.240;20.980;2022-12-29T13:38:51;6.57;;;4.03;;
17606;SDS011;8922;52.240;20.980;2022-12-29T13:41:30;8.43;;;4.77;;
17606;SDS011;8922;52.240;20.980;2022-12-29T13:44:03;8.43;;;4.17;;
17606;SDS011;8922;52.240;20.980;2022-12-29T13:46:37;5.63;;;3.90;;
17606;SDS011;8922;52.240;20.980;2022-12-29T13:49:11;7.70;;;4.23;;
17606;SDS011;8922;52.240;20.980;2022-12-29T13:51:47;8.40;;;4.17;;
17606;SDS011;8922;52.240;20.980;2022-12-29T13:54:25;7.50;;;4.30;;
17606;SDS011;8922;52.240;20.980;2022-12-29T13:57:05;9.17;;;4.23;;
17606;SDS011;8922;52.240;20.980;2022-12-29T13:59:44;7.87;;;3.93;;
17606;SDS011;8922;52.240;20.980;2022-12-29T14:02:21;6.83;;;4.37;;
17606;SDS011;8922;52.240;20.980;2022-12-29T14:05:00;11.60;;;4.10;;
17606;SDS011;8922;52.240;20.980;2022-12-29T14:07:35;10.17;;;4.33;;
17606;SDS011;8922;52.240;20.980;2022-12-29T14:10:17;6.07;;;3.60;;
17606;SDS011;8922;52.240;20.980;2022-12-29T14:13:00;5.70;;;4.00;;
17606;SDS011;8922;52.240;20.980;2022-12-29T14:15:33;7.43;;;3.90;;
17606;SDS011;8922;52.240;20.980;2022-12-29T14:18:12;8.80;;;3.77;;
17606;SDS011;8922;52.240;20.980;2022-12-29T14:20:52;7.40;;;4.37;;
17606;SDS011;8922;52.240;20.980;2022-12-29T14:23:27;5.60;;;4.00;;
17606;SDS011;8922;52.240;20.980;2022-12-29T14:26:14;6.93;;;3.93;;
17606;SDS011;8922;52.240;20.980;2022-12-29T14:28:46;6.13;;;3.73;;
17606;SDS011;8922;52.240;20.980;2022-12-29T14:31:34;7.13;;;3.87;;
17606;SDS011;8922;52.240;20.980;2022-12-29T14:34:15;6.40;;;4.27;;
17606;SDS011;8922;52.240;20.980;2022-12-29T14:37:04;9.10;;;4.20;;
17606;SDS011;8922;52.240;20.980;2022-12-29T14:40:02;5.47;;;4.10;;
17606;SDS011;8922;52.240;20.980;2022-12-29T14:42:35;7.27;;;4.03;;
17606;SDS011;8922;52.240;20.980;2022-12-29T14:45:26;6.13;;;4.27;;
17606;SDS011;8922;52.240;20.980;2022-12-29T14:47:59;6.20;;;3.93;;
17606;SDS011;8922;52.240;20.980;2022-12-29T14:50:32;8.23;;;4.13;;
17606;SDS011;8922;52.240;20.980;2022-12-29T14:53:10;6.60;;;4.07;;
17606;SDS011;8922;52.240;20.980;2022-12-29T14:56:13;7.20;;;4.33;;
17606;SDS011;8922;52.240;20.980;2022-12-29T14:58:49;7.67;;;4.77;;
17606;SDS011;8922;52.240;20.980;2022-12-29T15:01:34;9.13;;;4.83;;
17606;SDS011;8922;52.240;20.980;2022-12-29T15:04:14;12.03;;;5.00;;
17606;SDS011;8922;52.240;20.980;2022-12-29T15:06:47;8.97;;;4.77;;
17606;SDS011;8922;52.240;20.980;2022-12-29T15:09:23;7.13;;;4.70;;
17606;SDS011;8922;52.240;20.980;2022-12-29T15:11:57;7.57;;;4.43;;
17606;SDS011;8922;52.240;20.980;2022-12-29T15:14:36;8.03;;;4.90;;
17606;SDS011;8922;52.240;20.980;2022-12-29T15:17:22;7.97;;;4.97;;
17606;SDS011;8922;52.240;20.980;2022-12-29T15:19:53;8.43;;;5.10;;
17606;SDS011;8922;52.240;20.980;2022-12-29T15:22:23;8.60;;;5.30;;
17606;SDS011;8922;52.240;20.980;2022-12-29T15:24:53;7.97;;;4.83;;
17606;SDS011;8922;52.240;20.980;2022-12-29T15:27:24;6.87;;;4.70;;
17606;SDS011;8922;52.240;20.980;2022-12-29T15:29:58;7.90;;;4.57;;
17606;SDS011;8922;52.240;20.980;2022-12-29T15:32:29;7.90;;;4.70;;
17606;SDS011;8922;52.240;20.980;2022-12-29T15:35:21;11.80;;;5.00;;
17606;SDS011;8922;52.240;20.980;2022-12-29T15:37:56;6.80;;;4.93;;